Time;durP1;ratioP1;P1;durP2;ratioP2;P2;SDS_P1;SDS_P2;PMS_P1;PMS_P2;Temp;Humidity;BMP_temperature;BMP_pressure;BME280_temperature;BME280_humidity;BME280_pressure;Samples;Min_cycle;Max_cycle;Signal;HPM_P1;HPM_P2
2022/06/02 00:02:33;;;;;;;0.10;0.10;;;;;;;;;;4992069;28;20121;-87
2022/06/02 00:05:02;;;;;;;0.10;0.10;;;;;;;;;;4992038;28;20038;-87
2022/06/02 00:07:40;;;;;;;0.10;0.10;;;;;;;;;;4992324;28;20509;-86
2022/06/02 00:10:07;;;;;;;0.10;0.10;;;;;;;;;;4975958;28;20046;-87
2022/06/02 00:12:36;;;;;;;0.10;0.10;;;;;;;;;;4975848;28;20425;-87
2022/06/02 00:15:05;;;;;;;0.10;0.10;;;;;;;;;;4975859;28;20053;-87
2022/06/02 00:17:50;;;;;;;0.10;0.10;;;;;;;;;;4991835;28;20042;-86
2022/06/02 00:20:42;;;;;;;0.10;0.10;;;;;;;;;;4975547;28;20050;-87
2022/06/02 00:23:11;;;;;;;0.13;0.13;;;;;;;;;;4988359;28;20057;-86
2022/06/02 00:25:43;;;;;;;0.10;0.10;;;;;;;;;;4991822;28;20214;-86
2022/06/02 00:28:16;;;;;;;0.10;0.10;;;;;;;;;;4976003;28;20375;-87
2022/06/02 00:30:43;;;;;;;0.10;0.10;;;;;;;;;;4975494;28;20057;-87
2022/06/02 00:33:29;;;;;;;0.10;0.10;;;;;;;;;;4959483;28;20049;-87
2022/06/02 00:35:59;;;;;;;0.10;0.10;;;;;;;;;;4975661;28;20042;-86
2022/06/02 00:38:25;;;;;;;0.10;0.10;;;;;;;;;;4959326;28;20049;-86
2022/06/02 00:40:52;;;;;;;0.10;0.10;;;;;;;;;;4991731;28;20046;-87
2022/06/02 00:43:30;;;;;;;0.10;0.10;;;;;;;;;;4975586;28;20038;-87
2022/06/02 00:46:12;;;;;;;0.10;0.10;;;;;;;;;;4975362;28;20049;-86
2022/06/02 00:48:54;;;;;;;0.10;0.10;;;;;;;;;;4975353;28;20042;-87
2022/06/02 00:51:52;;;;;;;0.10;0.10;;;;;;;;;;4975801;28;20439;-87
2022/06/02 00:57:31;;;;;;;0.10;0.10;;;;;;;;;;4993075;28;20046;-87
2022/06/02 01:00:06;;;;;;;0.10;0.10;;;;;;;;;;4995229;28;20058;-85
2022/06/02 01:02:34;;;;;;;0.10;0.10;;;;;;;;;;4979454;28;20607;-84
2022/06/02 01:05:00;;;;;;;0.10;0.10;;;;;;;;;;4979384;28;20052;-88
2022/06/02 01:07:39;;;;;;;0.10;0.10;;;;;;;;;;4963182;28;20498;-88
2022/06/02 01:10:24;;;;;;;0.10;0.10;;;;;;;;;;4979082;28;20097;-88
2022/06/02 01:12:59;;;;;;;0.10;0.10;;;;;;;;;;4979172;28;20140;-87
2022/06/02 01:15:34;;;;;;;0.10;0.10;;;;;;;;;;4995325;28;20046;-88
2022/06/02 01:18:06;;;;;;;0.10;0.10;;;;;;;;;;4995098;28;20043;-88
2022/06/02 01:20:59;;;;;;;0.10;0.10;;;;;;;;;;4978987;28;20478;-88
2022/06/02 01:23:25;;;;;;;0.10;0.10;;;;;;;;;;4965984;28;20049;-87
2022/06/02 01:26:09;;;;;;;0.10;0.10;;;;;;;;;;4995256;28;20054;-87
2022/06/02 01:28:56;;;;;;;0.10;0.10;;;;;;;;;;4978642;28;20131;-86
2022/06/02 01:31:28;;;;;;;0.10;0.10;;;;;;;;;;4979126;28;20389;-87
2022/06/02 01:33:58;;;;;;;0.10;0.10;;;;;;;;;;4994988;28;20038;-87
2022/06/02 01:36:36;;;;;;;0.10;0.10;;;;;;;;;;4978957;28;20045;-87
2022/06/02 01:39:08;;;;;;;0.10;0.10;;;;;;;;;;4994720;28;20038;-87
2022/06/02 01:41:49;;;;;;;0.10;0.10;;;;;;;;;;4994772;28;20042;-87
2022/06/02 01:44:15;;;;;;;0.10;0.10;;;;;;;;;;4978440;28;20085;-87
2022/06/02 01:46:44;;;;;;;0.10;0.10;;;;;;;;;;4994656;28;20073;-87
2022/06/02 01:49:27;;;;;;;0.10;0.10;;;;;;;;;;4978376;28;20118;-87
2022/06/02 01:51:53;;;;;;;0.10;0.10;;;;;;;;;;4994936;28;20462;-89
2022/06/02 01:54:29;;;;;;;0.25;0.25;;;;;;;;;;4994425;28;20069;-88
2022/06/02 01:57:05;;;;;;;0.10;0.10;;;;;;;;;;4978568;28;20046;-88
2022/06/02 01:59:34;;;;;;;0.10;0.10;;;;;;;;;;4977966;28;20470;-87
2022/06/02 02:02:15;;;;;;;0.10;0.10;;;;;;;;;;4994387;28;20053;-86
2022/06/02 02:04:49;;;;;;;0.10;0.10;;;;;;;;;;4961993;28;20531;-86
2022/06/02 02:07:39;;;;;;;0.10;0.10;;;;;;;;;;4962187;28;20038;-86
2022/06/02 02:10:08;;;;;;;0.10;0.10;;;;;;;;;;4976993;28;20046;-86
2022/06/02 02:12:37;;;;;;;0.10;0.10;;;;;;;;;;4977848;28;20124;-86
2022/06/02 02:15:13;;;;;;;0.10;0.10;;;;;;;;;;4994184;28;20042;-86
2022/06/02 02:18:06;;;;;;;0.10;0.10;;;;;;;;;;4994390;28;20133;-86
2022/06/02 02:20:33;;;;;;;0.10;0.10;;;;;;;;;;4964833;28;20077;-87
2022/06/02 02:23:35;;;;;;;0.10;0.10;;;;;;;;;;4977833;28;20049;-88
2022/06/02 02:26:13;;;;;;;0.10;0.10;;;;;;;;;;4903581;29;20496;-87
2022/06/02 02:28:49;;;;;;;0.10;0.10;;;;;;;;;;4952653;28;20052;-88
2022/06/02 02:31:34;;;;;;;0.10;0.10;;;;;;;;;;4961604;28;20128;-88
2022/06/02 02:34:06;;;;;;;0.10;0.10;;;;;;;;;;4977648;28;20125;-87
2022/06/02 02:36:35;;;;;;;0.10;0.10;;;;;;;;;;4993893;28;20125;-88
2022/06/02 02:39:04;;;;;;;0.10;0.10;;;;;;;;;;4993584;28;20057;-89
2022/06/02 02:41:33;;;;;;;0.10;0.10;;;;;;;;;;4993725;28;20576;-88
2022/06/02 02:44:25;;;;;;;0.10;0.10;;;;;;;;;;4993656;28;20034;-88
2022/06/02 02:46:54;;;;;;;0.10;0.10;;;;;;;;;;4964558;28;20061;-87
2022/06/02 02:49:22;;;;;;;0.10;0.10;;;;;;;;;;4977715;28;20042;-88
2022/06/02 02:51:57;;;;;;;0.10;0.10;;;;;;;;;;4977359;28;20042;-87
2022/06/02 02:54:23;;;;;;;0.10;0.10;;;;;;;;;;4977276;28;20509;-87
2022/06/02 02:57:08;;;;;;;0.10;0.10;;;;;;;;;;4977199;28;20038;-87
2022/06/02 03:00:02;;;;;;;0.10;0.10;;;;;;;;;;4976852;28;20510;-87
2022/06/02 03:02:57;;;;;;;0.10;0.10;;;;;;;;;;4990579;28;20062;-88
2022/06/02 03:05:26;;;;;;;0.10;0.10;;;;;;;;;;4960764;28;20399;-88
2022/06/02 03:07:52;;;;;;;0.10;0.10;;;;;;;;;;4993119;28;20049;-87
2022/06/02 03:10:31;;;;;;;0.10;0.10;;;;;;;;;;4977089;28;20489;-87
2022/06/02 03:13:04;;;;;;;0.10;0.10;;;;;;;;;;4961054;28;20097;-87
2022/06/02 03:15:45;;;;;;;0.10;0.10;;;;;;;;;;4993314;28;20449;-86
2022/06/02 03:18:19;;;;;;;0.10;0.10;;;;;;;;;;4993343;28;20415;-86
2022/06/02 03:20:45;;;;;;;0.10;0.10;;;;;;;;;;4976455;28;20041;-87
2022/06/02 03:23:14;;;;;;;0.10;0.10;;;;;;;;;;4992809;28;20047;-87
2022/06/02 03:25:44;;;;;;;0.10;0.10;;;;;;;;;;4993065;28;20149;-86
2022/06/02 03:28:24;;;;;;;0.10;0.10;;;;;;;;;;4976801;28;20046;-87
2022/06/02 03:30:57;;;;;;;0.43;0.30;;;;;;;;;;4976780;28;20034;-88
2022/06/02 03:33:30;;;;;;;0.10;0.10;;;;;;;;;;4976617;28;20516;-88
2022/06/02 03:36:00;;;;;;;0.10;0.10;;;;;;;;;;4960391;28;20042;-88
2022/06/02 03:38:36;;;;;;;0.10;0.10;;;;;;;;;;4960665;28;20044;-88
2022/06/02 03:41:18;;;;;;;0.10;0.10;;;;;;;;;;4992651;28;20557;-88
2022/06/02 03:43:51;;;;;;;0.10;0.10;;;;;;;;;;4960317;28;20038;-88
2022/06/02 03:46:26;;;;;;;0.10;0.10;;;;;;;;;;4960449;28;20038;-88
2022/06/02 03:49:07;;;;;;;0.10;0.10;;;;;;;;;;4992445;28;20394;-89
2022/06/02 03:51:39;;;;;;;0.10;0.10;;;;;;;;;;4976550;28;20035;-88
2022/06/02 03:54:27;;;;;;;0.10;0.10;;;;;;;;;;4976120;28;20042;-87
2022/06/02 03:56:59;;;;;;;0.10;0.10;;;;;;;;;;4976316;28;20720;-87
2022/06/02 03:59:44;;;;;;;0.10;0.10;;;;;;;;;;4991897;28;20510;-86
2022/06/02 04:02:34;;;;;;;0.15;0.15;;;;;;;;;;4976048;28;20049;-86
2022/06/02 04:05:19;;;;;;;0.10;0.10;;;;;;;;;;4992322;28;20053;-87
2022/06/02 04:07:53;;;;;;;0.10;0.10;;;;;;;;;;4992180;28;20038;-87
2022/06/02 04:10:34;;;;;;;0.10;0.10;;;;;;;;;;4992345;28;20452;-87
2022/06/02 04:15:57;;;;;;;0.10;0.10;;;;;;;;;;4991990;28;20058;-87
2022/06/02 04:18:31;;;;;;;0.10;0.10;;;;;;;;;;4959820;28;20104;-87
2022/06/02 04:21:00;;;;;;;0.10;0.10;;;;;;;;;;4975973;28;20072;-86
2022/06/02 04:23:29;;;;;;;0.10;0.10;;;;;;;;;;4991966;28;20050;-88
2022/06/02 04:26:14;;;;;;;0.10;0.10;;;;;;;;;;4975582;28;20038;-88
2022/06/02 04:28:46;;;;;;;0.10;0.10;;;;;;;;;;4991760;28;20093;-86
2022/06/02 04:31:23;;;;;;;0.10;0.10;;;;;;;;;;4991517;28;20085;-86
2022/06/02 04:33:55;;;;;;;0.10;0.10;;;;;;;;;;4975363;28;20093;-87
2022/06/02 04:36:28;;;;;;;0.10;0.10;;;;;;;;;;4975718;28;20092;-87
2022/06/02 04:39:15;;;;;;;0.10;0.10;;;;;;;;;;4975530;28;20401;-87
2022/06/02 04:41:44;;;;;;;0.10;0.10;;;;;;;;;;4975573;28;20049;-87
2022/06/02 04:44:13;;;;;;;0.10;0.10;;;;;;;;;;4975548;28;20070;-87
2022/06/02 04:47:05;;;;;;;0.10;0.10;;;;;;;;;;4992074;28;20417;-87
2022/06/02 04:49:40;;;;;;;0.10;0.10;;;;;;;;;;4946526;28;20105;-87
2022/06/02 04:52:12;;;;;;;0.10;0.10;;;;;;;;;;4976213;28;20093;-87
2022/06/02 04:54:57;;;;;;;0.10;0.10;;;;;;;;;;4991431;28;20379;-87
2022/06/02 04:57:41;;;;;;;0.10;0.10;;;;;;;;;;4959403;28;20046;-88
2022/06/02 05:00:09;;;;;;;0.10;0.10;;;;;;;;;;4975432;28;20395;-88
2022/06/02 05:02:52;;;;;;;0.10;0.10;;;;;;;;;;4959656;28;20409;-87
2022/06/02 05:05:30;;;;;;;0.10;0.10;;;;;;;;;;4975114;28;20043;-86
2022/06/02 05:08:05;;;;;;;0.10;0.10;;;;;;;;;;4975229;28;20082;-87
2022/06/02 05:10:42;;;;;;;0.10;0.10;;;;;;;;;;4991682;28;20065;-87
2022/06/02 05:13:27;;;;;;;0.10;0.10;;;;;;;;;;4975305;28;20045;-86
2022/06/02 05:15:53;;;;;;;0.10;0.10;;;;;;;;;;4975092;28;20046;-86
2022/06/02 05:18:22;;;;;;;0.10;0.10;;;;;;;;;;4991247;28;20050;-87
2022/06/02 05:21:03;;;;;;;0.10;0.10;;;;;;;;;;4991202;28;20042;-87
2022/06/02 05:23:44;;;;;;;0.10;0.10;;;;;;;;;;4959445;28;20168;-87
2022/06/02 05:26:29;;;;;;;0.10;0.10;;;;;;;;;;4991457;28;20125;-87
2022/06/02 05:28:55;;;;;;;0.10;0.10;;;;;;;;;;4991203;28;20557;-87
2022/06/02 05:31:40;;;;;;;0.10;0.10;;;;;;;;;;4991379;28;20046;-87
2022/06/02 05:34:12;;;;;;;0.10;0.10;;;;;;;;;;4974916;28;20129;-87
2022/06/02 05:36:50;;;;;;;0.10;0.10;;;;;;;;;;4991461;28;20103;-88
2022/06/02 05:39:16;;;;;;;0.60;0.30;;;;;;;;;;4974825;28;20046;-88
2022/06/02 05:41:49;;;;;;;0.10;0.10;;;;;;;;;;4991310;28;20133;-88
2022/06/02 05:44:25;;;;;;;0.10;0.10;;;;;;;;;;4977744;28;20077;-88
2022/06/02 05:47:01;;;;;;;0.10;0.10;;;;;;;;;;4994625;28;20564;-87
2022/06/02 05:50:03;;;;;;;0.10;0.10;;;;;;;;;;4978554;28;20081;-88
2022/06/02 05:52:41;;;;;;;0.10;0.10;;;;;;;;;;4919811;29;20047;-87
2022/06/02 05:55:08;;;;;;;0.10;0.10;;;;;;;;;;4987755;28;20054;-87
2022/06/02 05:57:46;;;;;;;0.50;0.50;;;;;;;;;;4978262;28;20046;-87
2022/06/02 06:00:31;;;;;;;0.10;0.10;;;;;;;;;;4994391;28;20046;-87
2022/06/02 06:03:14;;;;;;;0.10;0.10;;;;;;;;;;4994371;28;20038;-88
2022/06/02 06:05:45;;;;;;;0.10;0.10;;;;;;;;;;4978461;28;20213;-89
2022/06/02 06:08:18;;;;;;;0.20;0.20;;;;;;;;;;4978407;28;20487;-89
2022/06/02 06:11:03;;;;;;;0.10;0.10;;;;;;;;;;4978228;28;20046;-88
2022/06/02 06:13:43;;;;;;;0.10;0.10;;;;;;;;;;4978106;28;20446;-89
2022/06/02 06:16:20;;;;;;;0.10;0.10;;;;;;;;;;4978148;28;20091;-89
2022/06/02 06:19:04;;;;;;;0.10;0.10;;;;;;;;;;4978079;28;20038;-88
2022/06/02 06:21:49;;;;;;;0.10;0.10;;;;;;;;;;4977957;28;20125;-89
2022/06/02 06:24:18;;;;;;;0.30;0.30;;;;;;;;;;4993815;28;20048;-89
2022/06/02 06:26:50;;;;;;;0.10;0.10;;;;;;;;;;4977839;28;20089;-89
2022/06/02 06:29:16;;;;;;;;;;;;;;;;;;4962188;28;20489;-88
2022/06/02 06:32:03;;;;;;;0.10;0.10;;;;;;;;;;4977800;28;19917;-89
2022/06/02 06:34:29;;;;;;;0.10;0.10;;;;;;;;;;4978022;28;20464;-89
2022/06/02 06:37:01;;;;;;;0.10;0.10;;;;;;;;;;4994006;28;20085;-90
2022/06/02 06:39:33;;;;;;;0.10;0.10;;;;;;;;;;4977569;28;20273;-89
2022/06/02 06:42:14;;;;;;;0.10;0.10;;;;;;;;;;4993626;28;20050;-89
2022/06/02 06:44:50;;;;;;;0.10;0.10;;;;;;;;;;4993754;28;20045;-89
2022/06/02 06:47:29;;;;;;;0.10;0.10;;;;;;;;;;4991471;28;20098;-88
2022/06/02 06:49:55;;;;;;;0.10;0.10;;;;;;;;;;4977381;28;20081;-89
2022/06/02 06:52:33;;;;;;;0.10;0.10;;;;;;;;;;4993029;28;20146;-89
2022/06/02 06:55:00;;;;;;;0.10;0.10;;;;;;;;;;4976615;28;20042;-88
2022/06/02 06:57:35;;;;;;;0.10;0.10;;;;;;;;;;4993262;28;20054;-89
2022/06/02 07:00:01;;;;;;;0.10;0.10;;;;;;;;;;4976544;28;20409;-91
2022/06/02 07:02:34;;;;;;;0.10;0.10;;;;;;;;;;4976813;28;20046;-88
2022/06/02 07:05:03;;;;;;;0.10;0.10;;;;;;;;;;4993469;28;20057;-91
2022/06/02 07:07:48;;;;;;;0.10;0.10;;;;;;;;;;4993223;28;20561;-90
2022/06/02 07:10:31;;;;;;;0.13;0.13;;;;;;;;;;4993000;28;20089;-90
2022/06/02 07:13:06;;;;;;;0.10;0.10;;;;;;;;;;4977184;28;20046;-90
2022/06/02 07:15:41;;;;;;;0.10;0.10;;;;;;;;;;4961586;28;20042;-90
2022/06/02 07:18:27;;;;;;;0.15;0.15;;;;;;;;;;4976890;28;20129;-90
2022/06/02 07:20:56;;;;;;;0.10;0.10;;;;;;;;;;4938398;28;20057;-90
2022/06/02 07:23:40;;;;;;;0.20;0.20;;;;;;;;;;4977157;28;20107;-91
2022/06/02 07:26:25;;;;;;;0.10;0.10;;;;;;;;;;4981658;28;20053;-90
2022/06/02 07:29:00;;;;;;;0.20;0.20;;;;;;;;;;4999461;28;20173;-90
2022/06/02 07:31:35;;;;;;;0.10;0.10;;;;;;;;;;4964351;28;20119;-92
2022/06/02 07:34:16;;;;;;;0.10;0.10;;;;;;;;;;4960922;28;20042;-91
2022/06/02 07:36:48;;;;;;;0.10;0.10;;;;;;;;;;5010857;28;20056;-91
2022/06/02 07:39:20;;;;;;;0.10;0.10;;;;;;;;;;5004064;28;20482;-90
2022/06/02 07:41:53;;;;;;;0.10;0.10;;;;;;;;;;4976749;28;20046;-89
2022/06/02 07:44:29;;;;;;;0.20;0.20;;;;;;;;;;4976449;28;20046;-89
2022/06/02 07:47:10;;;;;;;0.10;0.10;;;;;;;;;;4960579;28;20225;-93
2022/06/02 07:49:55;;;;;;;0.17;0.17;;;;;;;;;;4976433;28;20082;-89
2022/06/02 07:52:41;;;;;;;0.10;0.10;;;;;;;;;;4976208;28;20038;-92
2022/06/02 07:55:27;;;;;;;0.10;0.10;;;;;;;;;;4976120;28;20042;-91
2022/06/02 07:58:03;;;;;;;0.10;0.10;;;;;;;;;;4975819;28;20046;-90
2022/06/02 08:00:31;;;;;;;0.20;0.20;;;;;;;;;;4992302;28;20137;-93
2022/06/02 08:03:08;;;;;;;0.10;0.10;;;;;;;;;;4960774;28;20516;-92
2022/06/02 08:05:45;;;;;;;0.10;0.10;;;;;;;;;;4992234;28;20061;-92
2022/06/02 08:08:13;;;;;;;0.22;0.20;;;;;;;;;;4959562;28;20038;-92
2022/06/02 08:10:58;;;;;;;0.10;0.10;;;;;;;;;;4976078;28;20113;-92
2022/06/02 08:13:35;;;;;;;0.10;0.10;;;;;;;;;;4976377;28;20405;-90
2022/06/02 08:16:08;;;;;;;0.10;0.10;;;;;;;;;;4974176;28;20092;-87
2022/06/02 08:18:34;;;;;;;;;;;;;;;;;;4960490;28;20096;-93
2022/06/02 08:21:15;;;;;;;0.17;0.17;;;;;;;;;;4975797;28;19921;-92
2022/06/02 08:24:01;;;;;;;0.10;0.10;;;;;;;;;;4961944;28;20039;-93
2022/06/02 08:26:46;;;;;;;0.10;0.10;;;;;;;;;;4976278;28;20456;-92
2022/06/02 08:29:41;;;;;;;0.20;0.20;;;;;;;;;;4976339;28;20042;-91
2022/06/02 08:32:25;;;;;;;0.20;0.20;;;;;;;;;;4975981;28;20498;-92
2022/06/02 08:34:54;;;;;;;0.10;0.10;;;;;;;;;;4976452;28;20057;-93
2022/06/02 08:37:29;;;;;;;0.10;0.10;;;;;;;;;;4960012;28;20038;-93
2022/06/02 08:39:57;;;;;;;0.10;0.10;;;;;;;;;;4975738;28;20085;-92
2022/06/02 08:42:42;;;;;;;0.10;0.10;;;;;;;;;;4959495;28;20045;-92
2022/06/02 08:45:09;;;;;;;0.20;0.20;;;;;;;;;;4975933;28;20042;-93
2022/06/02 08:47:41;;;;;;;0.10;0.10;;;;;;;;;;4975600;28;20045;-88
2022/06/02 08:50:10;;;;;;;;;;;;;;;;;;4975722;28;20446;-90
2022/06/02 08:52:57;;;;;;;0.10;0.10;;;;;;;;;;4975083;28;19918;-88
2022/06/02 08:55:29;;;;;;;0.10;0.10;;;;;;;;;;4975455;28;20053;-89
2022/06/02 08:57:58;;;;;;;0.10;0.10;;;;;;;;;;4975355;28;20462;-89
2022/06/02 09:00:40;;;;;;;0.20;0.20;;;;;;;;;;4975064;28;20482;-89
2022/06/02 09:03:28;;;;;;;0.10;0.10;;;;;;;;;;4975375;28;20371;-89
2022/06/02 09:06:03;;;;;;;0.10;0.10;;;;;;;;;;4991398;28;20042;-89
2022/06/02 09:08:38;;;;;;;0.30;0.30;;;;;;;;;;4991549;28;20133;-89
2022/06/02 09:11:13;;;;;;;0.20;0.20;;;;;;;;;;4991277;28;20223;-88
2022/06/02 09:13:39;;;;;;;0.20;0.20;;;;;;;;;;4975490;28;20133;-88
2022/06/02 09:16:11;;;;;;;0.10;0.10;;;;;;;;;;4975130;28;20054;-88
2022/06/02 09:18:57;;;;;;;0.10;0.10;;;;;;;;;;4976987;28;20053;-88
2022/06/02 09:21:24;;;;;;;0.10;0.10;;;;;;;;;;4994996;28;20050;-88
2022/06/02 09:24:05;;;;;;;0.13;0.13;;;;;;;;;;4962801;28;20056;-88
2022/06/02 09:26:40;;;;;;;0.10;0.10;;;;;;;;;;4978893;28;20047;-88
2022/06/02 09:29:36;;;;;;;0.10;0.10;;;;;;;;;;4994977;28;20042;-88
2022/06/02 09:32:03;;;;;;;0.10;0.10;;;;;;;;;;4927328;28;20549;-88
2022/06/02 09:34:41;;;;;;;0.10;0.10;;;;;;;;;;4962939;28;20061;-88
2022/06/02 09:37:07;;;;;;;0.10;0.10;;;;;;;;;;4994832;28;20046;-88
2022/06/02 09:39:46;;;;;;;0.20;0.20;;;;;;;;;;4994783;28;20046;-88
2022/06/02 09:42:24;;;;;;;0.10;0.10;;;;;;;;;;4994549;28;20398;-88
2022/06/02 09:44:57;;;;;;;0.20;0.20;;;;;;;;;;4994981;28;20050;-88
2022/06/02 09:47:38;;;;;;;0.10;0.10;;;;;;;;;;4978653;28;20046;-88
2022/06/02 09:50:26;;;;;;;0.10;0.10;;;;;;;;;;4994632;28;20092;-87
2022/06/02 09:52:52;;;;;;;0.10;0.10;;;;;;;;;;4962550;28;20042;-88
2022/06/02 09:55:33;;;;;;;0.20;0.20;;;;;;;;;;4994661;28;20119;-89
2022/06/02 09:58:12;;;;;;;0.10;0.10;;;;;;;;;;4978662;28;20104;-89
2022/06/02 10:00:41;;;;;;;;;;;;;;;;;;4979103;28;20082;-87
2022/06/02 10:03:26;;;;;;;0.10;0.10;;;;;;;;;;4978130;28;19928;-88
2022/06/02 10:06:12;;;;;;;0.10;0.10;;;;;;;;;;4978460;28;20030;-89
2022/06/02 10:09:01;;;;;;;0.20;0.20;;;;;;;;;;4962096;28;20056;-87
2022/06/02 10:11:34;;;;;;;0.10;0.10;;;;;;;;;;4962315;28;20050;-87
2022/06/02 10:14:18;;;;;;;0.25;0.25;;;;;;;;;;4978023;28;20537;-87
2022/06/02 10:16:44;;;;;;;0.10;0.10;;;;;;;;;;4961918;28;20034;-87
2022/06/02 10:19:32;;;;;;;0.10;0.10;;;;;;;;;;4977876;28;20046;-87
2022/06/02 10:22:01;;;;;;;0.28;0.28;;;;;;;;;;4961816;28;20046;-87
2022/06/02 10:24:40;;;;;;;0.10;0.10;;;;;;;;;;4977651;28;20097;-87
2022/06/02 10:27:18;;;;;;;0.10;0.10;;;;;;;;;;4977790;28;20053;-87
2022/06/02 10:29:48;;;;;;;0.10;0.10;;;;;;;;;;4977230;28;20038;-87
2022/06/02 10:32:20;;;;;;;0.10;0.10;;;;;;;;;;4977618;28;20046;-87
2022/06/02 10:34:52;;;;;;;0.10;0.10;;;;;;;;;;4963388;28;20046;-89
2022/06/02 10:37:18;;;;;;;;;;;;;;;;;;4978312;28;20049;-88
2022/06/02 10:39:55;;;;;;;0.10;0.10;;;;;;;;;;4978743;28;20312;-90
2022/06/02 10:42:21;;;;;;;0.17;0.17;;;;;;;;;;4977652;28;20069;-88
2022/06/02 10:45:05;;;;;;;0.10;0.10;;;;;;;;;;4961363;28;20080;-89
2022/06/02 10:47:50;;;;;;;0.10;0.10;;;;;;;;;;4977418;28;20038;-88
2022/06/02 10:50:16;;;;;;;0.10;0.10;;;;;;;;;;4959548;28;20165;-94
2022/06/02 10:53:08;;;;;;;0.10;0.10;;;;;;;;;;4942260;28;20134;-92
2022/06/02 10:55:47;;;;;;;0.10;0.10;;;;;;;;;;4955033;28;20051;-93
2022/06/02 10:58:13;;;;;;;0.10;0.10;;;;;;;;;;4945015;28;20050;-93
2022/06/02 11:00:52;;;;;;;0.10;0.10;;;;;;;;;;4978245;28;20490;-92
2022/06/02 11:03:40;;;;;;;0.17;0.17;;;;;;;;;;4994183;28;20046;-92
2022/06/02 11:06:13;;;;;;;0.10;0.10;;;;;;;;;;4977258;28;20031;-90
2022/06/02 11:08:41;;;;;;;0.20;0.20;;;;;;;;;;4994163;28;20042;-96
2022/06/02 11:11:16;;;;;;;0.10;0.10;;;;;;;;;;4978313;28;20486;-94
2022/06/02 11:13:42;;;;;;;;;;;;;;;;;;4978594;28;20100;-95
2022/06/02 11:16:29;;;;;;;0.10;0.10;;;;;;;;;;4977701;28;19921;-95
2022/06/02 11:19:18;;;;;;;0.15;0.15;;;;;;;;;;4979116;28;20099;-95
2022/06/02 11:22:05;;;;;;;0.10;0.10;;;;;;;;;;4976674;28;20513;-92
2022/06/02 11:24:51;;;;;;;0.10;0.10;;;;;;;;;;4981581;28;20053;-92
2022/06/02 11:27:36;;;;;;;0.10;0.10;;;;;;;;;;4990252;28;20049;-93
2022/06/02 11:30:05;;;;;;;0.20;0.20;;;;;;;;;;4993837;28;20046;-93
2022/06/02 11:32:50;;;;;;;0.10;0.10;;;;;;;;;;4996888;28;20049;-93
2022/06/02 11:35:35;;;;;;;0.10;0.10;;;;;;;;;;4997305;28;20022;-91
2022/06/02 11:38:09;;;;;;;0.10;0.10;;;;;;;;;;5015919;28;20039;-93
2022/06/02 11:40:39;;;;;;;0.13;0.13;;;;;;;;;;5000348;28;20054;-92
2022/06/02 11:43:26;;;;;;;0.10;0.10;;;;;;;;;;5001161;28;20033;-91
2022/06/02 11:46:11;;;;;;;0.15;0.15;;;;;;;;;;4985434;28;20085;-94
2022/06/02 11:49:07;;;;;;;0.10;0.10;;;;;;;;;;5000580;28;20098;-89
2022/06/02 11:51:54;;;;;;;0.10;0.10;;;;;;;;;;4979440;28;20054;-90
2022/06/02 11:54:27;;;;;;;0.20;0.20;;;;;;;;;;4987480;28;20050;-91
2022/06/02 11:56:53;;;;;;;;;;;;;;;;;;4993004;28;20042;-89
2022/06/02 11:59:38;;;;;;;0.10;0.10;;;;;;;;;;4991990;28;19929;-89
2022/06/02 12:02:13;;;;;;;0.13;0.13;;;;;;;;;;4992230;28;20043;-88
2022/06/02 12:04:39;;;;;;;0.10;0.10;;;;;;;;;;4976158;28;20038;-89
2022/06/02 12:07:08;;;;;;;0.10;0.10;;;;;;;;;;4975991;28;20125;-90
2022/06/02 12:09:37;;;;;;;0.25;0.25;;;;;;;;;;4975995;28;20042;-91
2022/06/02 12:12:07;;;;;;;0.10;0.10;;;;;;;;;;4992049;28;20571;-90
2022/06/02 12:14:39;;;;;;;0.10;0.10;;;;;;;;;;4959938;28;20042;-89
2022/06/02 12:17:04;;;;;;;0.20;0.20;;;;;;;;;;4992070;28;20043;-89
2022/06/02 12:19:39;;;;;;;0.10;0.10;;;;;;;;;;4976114;28;20050;-90
2022/06/02 12:22:39;;;;;;;0.10;0.10;;;;;;;;;;4960151;28;20065;-90
2022/06/02 12:25:23;;;;;;;0.10;0.10;;;;;;;;;;4971830;28;20038;-95
2022/06/02 12:28:02;;;;;;;0.20;0.20;;;;;;;;;;4975597;28;20053;-90
2022/06/02 12:30:40;;;;;;;0.20;0.20;;;;;;;;;;4992209;28;20497;-87
2022/06/02 12:33:26;;;;;;;0.10;0.10;;;;;;;;;;4975610;28;20120;-86
2022/06/02 12:36:12;;;;;;;0.10;0.10;;;;;;;;;;4953256;28;20398;-87
2022/06/02 12:38:41;;;;;;;0.10;0.10;;;;;;;;;;4975709;28;20616;-87
2022/06/02 12:41:10;;;;;;;0.10;0.10;;;;;;;;;;4991591;28;20042;-88
2022/06/02 12:43:55;;;;;;;0.10;0.10;;;;;;;;;;4991777;28;20133;-87
2022/06/02 12:46:32;;;;;;;0.10;0.10;;;;;;;;;;4991584;28;20126;-86
2022/06/02 12:49:15;;;;;;;0.20;0.20;;;;;;;;;;4975625;28;20042;-89
2022/06/02 12:51:44;;;;;;;0.10;0.10;;;;;;;;;;4992161;28;20069;-88
2022/06/02 12:54:28;;;;;;;0.20;0.20;;;;;;;;;;4975063;28;20034;-87
2022/06/02 12:57:30;;;;;;;0.10;0.10;;;;;;;;;;4992873;28;20050;-87
2022/06/02 13:00:16;;;;;;;0.10;0.10;;;;;;;;;;4886735;29;20059;-87
2022/06/02 13:02:45;;;;;;;0.10;0.10;;;;;;;;;;4934172;28;20047;-93
2022/06/02 13:05:14;;;;;;;0.20;0.20;;;;;;;;;;4954633;28;20038;-90
2022/06/02 13:07:45;;;;;;;0.10;0.10;;;;;;;;;;4940259;28;20042;-91
2022/06/02 13:10:30;;;;;;;0.10;0.10;;;;;;;;;;4940238;28;20042;-91
2022/06/02 13:13:02;;;;;;;0.10;0.10;;;;;;;;;;4940407;28;20042;-92
2022/06/02 13:15:28;;;;;;;;;;;;;;;;;;4956330;28;20073;-91
2022/06/02 13:18:14;;;;;;;0.10;0.10;;;;;;;;;;4939879;28;19929;-91
2022/06/02 13:20:59;;;;;;;0.20;0.20;;;;;;;;;;4924354;28;20130;-92
2022/06/02 13:23:27;;;;;;;0.10;0.10;;;;;;;;;;4939859;28;20166;-91
2022/06/02 13:26:01;;;;;;;0.10;0.10;;;;;;;;;;4939839;28;20039;-91
2022/06/02 13:28:46;;;;;;;0.20;0.20;;;;;;;;;;4924455;28;20049;-91
2022/06/02 13:31:31;;;;;;;0.10;0.10;;;;;;;;;;4955831;28;20046;-90
2022/06/02 13:34:16;;;;;;;0.20;0.20;;;;;;;;;;4939627;28;20154;-90
2022/06/02 13:36:51;;;;;;;0.10;0.10;;;;;;;;;;4940037;28;20050;-91
2022/06/02 13:39:50;;;;;;;0.17;0.17;;;;;;;;;;4939749;28;20085;-92
2022/06/02 13:42:22;;;;;;;0.20;0.20;;;;;;;;;;4918835;28;20050;-89
2022/06/02 13:45:05;;;;;;;0.10;0.10;;;;;;;;;;4940052;28;20046;-91
2022/06/02 13:47:31;;;;;;;0.20;0.20;;;;;;;;;;4940291;28;20455;-93
2022/06/02 13:50:03;;;;;;;0.10;0.10;;;;;;;;;;4939947;28;20082;-92
2022/06/02 13:52:38;;;;;;;0.15;0.15;;;;;;;;;;4924371;28;20047;-92
2022/06/02 13:57:58;;;;;;;0.10;0.10;;;;;;;;;;4955699;28;20047;-92
2022/06/02 14:00:39;;;;;;;0.10;0.10;;;;;;;;;;4987810;28;20077;-92
2022/06/02 14:03:34;;;;;;;0.20;0.20;;;;;;;;;;4991183;28;20046;-91
2022/06/02 14:06:06;;;;;;;0.20;0.20;;;;;;;;;;4926013;28;20515;-91
2022/06/02 14:08:32;;;;;;;;;;;;;;;;;;4979053;28;20042;-89
2022/06/02 14:11:17;;;;;;;0.10;0.10;;;;;;;;;;4978051;28;20387;-90
2022/06/02 14:13:48;;;;;;;0.20;0.20;;;;;;;;;;4994278;28;20053;-89
2022/06/02 14:16:17;;;;;;;0.10;0.10;;;;;;;;;;4978094;28;20042;-90
2022/06/02 14:18:46;;;;;;;0.10;0.10;;;;;;;;;;4994269;28;20050;-88
2022/06/02 14:21:30;;;;;;;0.10;0.10;;;;;;;;;;4994090;28;20042;-89
2022/06/02 14:24:05;;;;;;;0.10;0.10;;;;;;;;;;4978369;28;20173;-89
2022/06/02 14:26:31;;;;;;;0.20;0.20;;;;;;;;;;4978615;28;20093;-94
2022/06/02 14:28:57;;;;;;;0.10;0.10;;;;;;;;;;4994104;28;20281;-89
2022/06/02 14:31:43;;;;;;;0.13;0.13;;;;;;;;;;4994097;28;20042;-88
2022/06/02 14:34:29;;;;;;;0.20;0.20;;;;;;;;;;4977900;28;20038;-89
2022/06/02 14:37:04;;;;;;;0.10;0.10;;;;;;;;;;4977971;28;20046;-89
2022/06/02 14:39:32;;;;;;;0.10;0.10;;;;;;;;;;4994329;28;20160;-89
2022/06/02 14:42:17;;;;;;;0.10;0.10;;;;;;;;;;4961982;28;20389;-89
2022/06/02 14:44:59;;;;;;;0.10;0.10;;;;;;;;;;4993833;28;20140;-89
2022/06/02 14:47:25;;;;;;;;;;;;;;;;;;4978371;28;20047;-90
2022/06/02 14:49:58;;;;;;;0.10;0.10;;;;;;;;;;4994151;28;19917;-89
2022/06/02 14:52:32;;;;;;;0.10;0.10;;;;;;;;;;4961724;28;20049;-89
2022/06/02 14:55:11;;;;;;;0.10;0.10;;;;;;;;;;4993675;28;20049;-88
2022/06/02 14:57:53;;;;;;;0.10;0.10;;;;;;;;;;4979252;28;20054;-89
2022/06/02 15:00:31;;;;;;;0.10;0.10;;;;;;;;;;4977695;28;20046;-91
2022/06/02 15:03:03;;;;;;;0.10;0.10;;;;;;;;;;4977877;28;20400;-91
2022/06/02 15:05:32;;;;;;;0.10;0.10;;;;;;;;;;4977943;28;20096;-91
2022/06/02 15:08:17;;;;;;;0.10;0.10;;;;;;;;;;4977915;28;20137;-91
2022/06/02 15:10:52;;;;;;;0.10;0.10;;;;;;;;;;4977337;28;20498;-90
2022/06/02 15:13:20;;;;;;;0.10;0.10;;;;;;;;;;4960669;28;20514;-90
2022/06/02 15:15:53;;;;;;;0.10;0.10;;;;;;;;;;4976404;28;20526;-91
2022/06/02 15:18:38;;;;;;;0.10;0.10;;;;;;;;;;4976930;28;20034;-91
2022/06/02 15:21:11;;;;;;;0.10;0.10;;;;;;;;;;4976672;28;20088;-90
2022/06/02 15:23:37;;;;;;;0.10;0.10;;;;;;;;;;4977315;28;20073;-92
2022/06/02 15:26:04;;;;;;;0.10;0.10;;;;;;;;;;4976832;28;20482;-90
2022/06/02 15:28:52;;;;;;;0.20;0.20;;;;;;;;;;4991702;28;20069;-91
2022/06/02 15:31:19;;;;;;;0.10;0.10;;;;;;;;;;4992787;28;20046;-92
2022/06/02 15:34:00;;;;;;;0.20;0.20;;;;;;;;;;4977377;28;20359;-90
2022/06/02 15:36:45;;;;;;;0.10;0.10;;;;;;;;;;4979607;28;20070;-89
2022/06/02 15:39:16;;;;;;;0.10;0.10;;;;;;;;;;4977573;28;20453;-89
2022/06/02 15:41:42;;;;;;;0.10;0.10;;;;;;;;;;4961145;28;20049;-88
2022/06/02 15:44:08;;;;;;;0.10;0.10;;;;;;;;;;4977757;28;20411;-89
2022/06/02 15:46:37;;;;;;;0.10;0.10;;;;;;;;;;4992970;28;20177;-89
2022/06/02 15:49:23;;;;;;;0.20;0.20;;;;;;;;;;4977248;28;20122;-89
2022/06/02 15:52:05;;;;;;;0.20;0.20;;;;;;;;;;4993069;28;20038;-88